sensor_id;sensor_type;location;lat;lon;timestamp;P1;durP1;ratioP1;P2;durP2;ratioP2
9815;SDS011;4947;44.526;11.360;2023-01-10T00:01:04;17.43;;;10.43;;
9815;SDS011;4947;44.526;11.360;2023-01-10T00:03:32;21.20;;;11.00;;
9815;SDS011;4947;44.526;11.360;2023-01-10T00:06:00;21.08;;;10.98;;
9815;SDS011;4947;44.526;11.360;2023-01-10T00:08:30;17.63;;;10.18;;
9815;SDS011;4947;44.526;11.360;2023-01-10T00:10:57;17.80;;;9.85;;
9815;SDS011;4947;44.526;11.360;2023-01-10T00:13:45;16.98;;;10.52;;
9815;SDS011;4947;44.526;11.360;2023-01-10T00:16:11;19.08;;;10.20;;
9815;SDS011;4947;44.526;11.360;2023-01-10T00:18:39;17.13;;;11.20;;
9815;SDS011;4947;44.526;11.360;2023-01-10T00:21:06;17.55;;;11.07;;
9815;SDS011;4947;44.526;11.360;2023-01-10T00:23:35;25.92;;;11.90;;
9815;SDS011;4947;44.526;11.360;2023-01-10T00:26:02;17.43;;;11.17;;
9815;SDS011;4947;44.526;11.360;2023-01-10T00:28:29;16.80;;;10.37;;
9815;SDS011;4947;44.526;11.360;2023-01-10T00:31:00;20.37;;;11.90;;
9815;SDS011;4947;44.526;11.360;2023-01-10T00:33:30;17.67;;;10.30;;
9815;SDS011;4947;44.526;11.360;2023-01-10T00:35:58;20.67;;;11.60;;
9815;SDS011;4947;44.526;11.360;2023-01-10T00:38:27;19.57;;;11.90;;
9815;SDS011;4947;44.526;11.360;2023-01-10T00:40:54;17.73;;;10.45;;
9815;SDS011;4947;44.526;11.360;2023-01-10T00:43:22;20.30;;;11.17;;
9815;SDS011;4947;44.526;11.360;2023-01-10T00:46:08;17.63;;;11.23;;
9815;SDS011;4947;44.526;11.360;2023-01-10T00:48:36;18.07;;;11.23;;
9815;SDS011;4947;44.526;11.360;2023-01-10T00:51:05;15.13;;;10.30;;
9815;SDS011;4947;44.526;11.360;2023-01-10T00:53:32;16.20;;;10.20;;
9815;SDS011;4947;44.526;11.360;2023-01-10T00:56:00;17.50;;;9.50;;
9815;SDS011;4947;44.526;11.360;2023-01-10T00:58:27;20.80;;;11.25;;
9815;SDS011;4947;44.526;11.360;2023-01-10T01:00:55;15.35;;;9.48;;
9815;SDS011;4947;44.526;11.360;2023-01-10T01:03:24;15.13;;;10.27;;
9815;SDS011;4947;44.526;11.360;2023-01-10T01:05:51;11.37;;;7.60;;
9815;SDS011;4947;44.526;11.360;2023-01-10T01:08:20;12.05;;;7.03;;
9815;SDS011;4947;44.526;11.360;2023-01-10T01:10:48;11.65;;;7.10;;
9815;SDS011;4947;44.526;11.360;2023-01-10T01:13:16;9.63;;;5.85;;
9815;SDS011;4947;44.526;11.360;2023-01-10T01:15:45;11.20;;;6.60;;
9815;SDS011;4947;44.526;11.360;2023-01-10T01:18:13;11.07;;;6.85;;
9815;SDS011;4947;44.526;11.360;2023-01-10T01:20:44;11.23;;;5.78;;
9815;SDS011;4947;44.526;11.360;2023-01-10T01:23:13;7.27;;;5.73;;
9815;SDS011;4947;44.526;11.360;2023-01-10T01:25:41;11.47;;;6.27;;
9815;SDS011;4947;44.526;11.360;2023-01-10T01:28:09;7.67;;;5.23;;
9815;SDS011;4947;44.526;11.360;2023-01-10T01:30:38;8.98;;;4.82;;
9815;SDS011;4947;44.526;11.360;2023-01-10T01:33:09;7.47;;;4.57;;
9815;SDS011;4947;44.526;11.360;2023-01-10T01:35:36;5.43;;;4.05;;
9815;SDS011;4947;44.526;11.360;2023-01-10T01:38:09;6.65;;;4.15;;
9815;SDS011;4947;44.526;11.360;2023-01-10T01:40:36;5.57;;;4.47;;
9815;SDS011;4947;44.526;11.360;2023-01-10T01:43:11;5.47;;;4.20;;
9815;SDS011;4947;44.526;11.360;2023-01-10T01:45:49;7.37;;;4.63;;
9815;SDS011;4947;44.526;11.360;2023-01-10T01:48:26;7.32;;;4.20;;
9815;SDS011;4947;44.526;11.360;2023-01-10T01:50:58;10.05;;;4.57;;
9815;SDS011;4947;44.526;11.360;2023-01-10T01:53:33;5.57;;;4.10;;
9815;SDS011;4947;44.526;11.360;2023-01-10T01:56:07;6.10;;;4.30;;
9815;SDS011;4947;44.526;11.360;2023-01-10T01:58:40;5.90;;;4.77;;
9815;SDS011;4947;44.526;11.360;2023-01-10T02:01:12;6.28;;;4.07;;
9815;SDS011;4947;44.526;11.360;2023-01-10T02:03:42;7.07;;;3.80;;
9815;SDS011;4947;44.526;11.360;2023-01-10T02:06:13;11.32;;;4.05;;
9815;SDS011;4947;44.526;11.360;2023-01-10T02:08:45;6.10;;;4.03;;
9815;SDS011;4947;44.526;11.360;2023-01-10T02:11:18;4.55;;;3.60;;
9815;SDS011;4947;44.526;11.360;2023-01-10T02:13:46;6.40;;;3.60;;
9815;SDS011;4947;44.526;11.360;2023-01-10T02:16:15;4.40;;;3.53;;
9815;SDS011;4947;44.526;11.360;2023-01-10T02:18:43;6.30;;;3.70;;
9815;SDS011;4947;44.526;11.360;2023-01-10T02:21:23;6.07;;;3.77;;
9815;SDS011;4947;44.526;11.360;2023-01-10T02:27:25;5.60;;;3.25;;
9815;SDS011;4947;44.526;11.360;2023-01-10T02:33:01;6.82;;;3.40;;
9815;SDS011;4947;44.526;11.360;2023-01-10T02:35:46;6.00;;;3.80;;
9815;SDS011;4947;44.526;11.360;2023-01-10T02:38:22;5.22;;;3.60;;
9815;SDS011;4947;44.526;11.360;2023-01-10T02:41:00;5.95;;;3.40;;
9815;SDS011;4947;44.526;11.360;2023-01-10T02:43:36;5.53;;;3.60;;
9815;SDS011;4947;44.526;11.360;2023-01-10T02:46:09;4.55;;;3.55;;
9815;SDS011;4947;44.526;11.360;2023-01-10T02:48:42;4.40;;;2.87;;
9815;SDS011;4947;44.526;11.360;2023-01-10T02:51:13;5.33;;;2.90;;
9815;SDS011;4947;44.526;11.360;2023-01-10T02:53:45;4.25;;;2.60;;
9815;SDS011;4947;44.526;11.360;2023-01-10T02:59:23;2.60;;;1.98;;
9815;SDS011;4947;44.526;11.360;2023-01-10T03:02:16;4.43;;;2.75;;
9815;SDS011;4947;44.526;11.360;2023-01-10T03:04:57;3.33;;;2.53;;
9815;SDS011;4947;44.526;11.360;2023-01-10T03:07:34;2.93;;;2.20;;
9815;SDS011;4947;44.526;11.360;2023-01-10T03:10:06;2.97;;;2.50;;
9815;SDS011;4947;44.526;11.360;2023-01-10T03:12:37;3.60;;;2.50;;
9815;SDS011;4947;44.526;11.360;2023-01-10T03:15:09;2.33;;;2.10;;
9815;SDS011;4947;44.526;11.360;2023-01-10T03:17:40;3.67;;;2.53;;
9815;SDS011;4947;44.526;11.360;2023-01-10T03:20:12;5.77;;;2.67;;
9815;SDS011;4947;44.526;11.360;2023-01-10T03:22:41;4.15;;;2.53;;
9815;SDS011;4947;44.526;11.360;2023-01-10T03:25:10;4.67;;;2.10;;
9815;SDS011;4947;44.526;11.360;2023-01-10T03:27:42;2.50;;;2.28;;
9815;SDS011;4947;44.526;11.360;2023-01-10T03:30:18;3.72;;;2.60;;
9815;SDS011;4947;44.526;11.360;2023-01-10T03:32:53;4.63;;;2.03;;
9815;SDS011;4947;44.526;11.360;2023-01-10T03:35:25;5.50;;;2.60;;
9815;SDS011;4947;44.526;11.360;2023-01-10T03:38:00;4.90;;;2.47;;
9815;SDS011;4947;44.526;11.360;2023-01-10T03:40:34;4.23;;;2.53;;
9815;SDS011;4947;44.526;11.360;2023-01-10T03:43:07;3.85;;;1.90;;
9815;SDS011;4947;44.526;11.360;2023-01-10T03:45:59;3.28;;;2.00;;
9815;SDS011;4947;44.526;11.360;2023-01-10T03:48:29;2.77;;;2.10;;
9815;SDS011;4947;44.526;11.360;2023-01-10T03:51:04;2.43;;;2.00;;
9815;SDS011;4947;44.526;11.360;2023-01-10T03:53:33;4.27;;;2.13;;
9815;SDS011;4947;44.526;11.360;2023-01-10T03:56:04;5.20;;;2.30;;
9815;SDS011;4947;44.526;11.360;2023-01-10T03:58:32;3.00;;;1.87;;
9815;SDS011;4947;44.526;11.360;2023-01-10T04:01:00;4.93;;;2.60;;
9815;SDS011;4947;44.526;11.360;2023-01-10T04:03:27;4.88;;;2.50;;
9815;SDS011;4947;44.526;11.360;2023-01-10T04:05:54;3.87;;;2.50;;
9815;SDS011;4947;44.526;11.360;2023-01-10T04:08:23;2.38;;;2.00;;
9815;SDS011;4947;44.526;11.360;2023-01-10T04:10:52;4.07;;;2.30;;
9815;SDS011;4947;44.526;11.360;2023-01-10T04:13:19;5.55;;;1.95;;
9815;SDS011;4947;44.526;11.360;2023-01-10T04:15:47;6.45;;;2.53;;
9815;SDS011;4947;44.526;11.360;2023-01-10T04:18:15;3.73;;;2.10;;
9815;SDS011;4947;44.526;11.360;2023-01-10T04:20:43;2.38;;;1.85;;
9815;SDS011;4947;44.526;11.360;2023-01-10T04:23:11;2.53;;;1.80;;
9815;SDS011;4947;44.526;11.360;2023-01-10T04:25:40;6.90;;;1.92;;
9815;SDS011;4947;44.526;11.360;2023-01-10T04:28:07;4.35;;;2.60;;
9815;SDS011;4947;44.526;11.360;2023-01-10T04:30:35;2.47;;;2.07;;
9815;SDS011;4947;44.526;11.360;2023-01-10T04:33:03;3.00;;;2.20;;
9815;SDS011;4947;44.526;11.360;2023-01-10T04:35:31;2.65;;;1.77;;
9815;SDS011;4947;44.526;11.360;2023-01-10T04:37:59;1.83;;;1.65;;
9815;SDS011;4947;44.526;11.360;2023-01-10T04:40:34;4.40;;;1.77;;
9815;SDS011;4947;44.526;11.360;2023-01-10T04:43:03;2.78;;;1.70;;
9815;SDS011;4947;44.526;11.360;2023-01-10T04:45:31;7.60;;;1.63;;
9815;SDS011;4947;44.526;11.360;2023-01-10T04:47:58;4.77;;;1.60;;
9815;SDS011;4947;44.526;11.360;2023-01-10T04:50:26;1.50;;;1.40;;
9815;SDS011;4947;44.526;11.360;2023-01-10T04:52:53;1.30;;;1.20;;
9815;SDS011;4947;44.526;11.360;2023-01-10T04:55:21;1.10;;;1.10;;
9815;SDS011;4947;44.526;11.360;2023-01-10T04:57:49;3.30;;;1.70;;
9815;SDS011;4947;44.526;11.360;2023-01-10T05:00:18;1.92;;;1.00;;
9815;SDS011;4947;44.526;11.360;2023-01-10T05:02:46;2.37;;;1.30;;
9815;SDS011;4947;44.526;11.360;2023-01-10T05:05:14;1.52;;;1.42;;
9815;SDS011;4947;44.526;11.360;2023-01-10T05:07:44;1.97;;;1.40;;
9815;SDS011;4947;44.526;11.360;2023-01-10T05:10:12;1.98;;;1.40;;
9815;SDS011;4947;44.526;11.360;2023-01-10T05:12:39;7.22;;;1.60;;
9815;SDS011;4947;44.526;11.360;2023-01-10T05:15:07;1.73;;;1.47;;
9815;SDS011;4947;44.526;11.360;2023-01-10T05:17:36;2.33;;;1.50;;
9815;SDS011;4947;44.526;11.360;2023-01-10T05:20:03;1.73;;;1.50;;
9815;SDS011;4947;44.526;11.360;2023-01-10T05:22:33;1.13;;;1.02;;
9815;SDS011;4947;44.526;11.360;2023-01-10T05:25:02;1.40;;;1.30;;
9815;SDS011;4947;44.526;11.360;2023-01-10T05:27:31;1.83;;;1.60;;
9815;SDS011;4947;44.526;11.360;2023-01-10T05:29:58;2.35;;;1.48;;
9815;SDS011;4947;44.526;11.360;2023-01-10T05:32:27;3.75;;;1.63;;
9815;SDS011;4947;44.526;11.360;2023-01-10T05:34:57;3.47;;;1.65;;
9815;SDS011;4947;44.526;11.360;2023-01-10T05:37:25;1.65;;;1.35;;
9815;SDS011;4947;44.526;11.360;2023-01-10T05:39:53;1.50;;;1.40;;
9815;SDS011;4947;44.526;11.360;2023-01-10T05:42:20;1.27;;;1.20;;
9815;SDS011;4947;44.526;11.360;2023-01-10T05:44:47;2.25;;;2.00;;
9815;SDS011;4947;44.526;11.360;2023-01-10T05:47:15;3.88;;;1.70;;
9815;SDS011;4947;44.526;11.360;2023-01-10T05:49:43;1.93;;;1.70;;
9815;SDS011;4947;44.526;11.360;2023-01-10T05:52:13;1.83;;;1.50;;
9815;SDS011;4947;44.526;11.360;2023-01-10T05:54:41;4.32;;;2.22;;
9815;SDS011;4947;44.526;11.360;2023-01-10T05:57:09;1.60;;;1.40;;
9815;SDS011;4947;44.526;11.360;2023-01-10T05:59:37;2.88;;;2.13;;
9815;SDS011;4947;44.526;11.360;2023-01-10T06:02:05;1.77;;;1.40;;
9815;SDS011;4947;44.526;11.360;2023-01-10T06:04:32;2.30;;;1.80;;
9815;SDS011;4947;44.526;11.360;2023-01-10T06:06:59;3.37;;;1.80;;
9815;SDS011;4947;44.526;11.360;2023-01-10T06:09:29;2.50;;;1.70;;
9815;SDS011;4947;44.526;11.360;2023-01-10T06:11:56;2.93;;;1.93;;
9815;SDS011;4947;44.526;11.360;2023-01-10T06:14:23;4.85;;;1.70;;
9815;SDS011;4947;44.526;11.360;2023-01-10T06:16:52;2.05;;;1.40;;
9815;SDS011;4947;44.526;11.360;2023-01-10T06:19:20;2.90;;;1.90;;
9815;SDS011;4947;44.526;11.360;2023-01-10T06:21:47;2.65;;;1.55;;
9815;SDS011;4947;44.526;11.360;2023-01-10T06:24:15;2.35;;;1.98;;
9815;SDS011;4947;44.526;11.360;2023-01-10T06:26:51;1.70;;;1.60;;
9815;SDS011;4947;44.526;11.360;2023-01-10T06:29:19;5.60;;;1.67;;
9815;SDS011;4947;44.526;11.360;2023-01-10T06:31:47;6.53;;;2.00;;
9815;SDS011;4947;44.526;11.360;2023-01-10T06:34:14;1.70;;;1.50;;
9815;SDS011;4947;44.526;11.360;2023-01-10T06:36:42;2.78;;;2.05;;
9815;SDS011;4947;44.526;11.360;2023-01-10T06:39:09;3.03;;;1.90;;
9815;SDS011;4947;44.526;11.360;2023-01-10T06:41:37;2.55;;;1.98;;
9815;SDS011;4947;44.526;11.360;2023-01-10T06:44:06;2.53;;;1.80;;
9815;SDS011;4947;44.526;11.360;2023-01-10T06:46:35;4.87;;;2.10;;
9815;SDS011;4947;44.526;11.360;2023-01-10T06:49:02;2.03;;;1.83;;
9815;SDS011;4947;44.526;11.360;2023-01-10T06:51:30;4.47;;;2.15;;
9815;SDS011;4947;44.526;11.360;2023-01-10T06:53:57;3.45;;;1.90;;
9815;SDS011;4947;44.526;11.360;2023-01-10T06:56:25;6.32;;;1.88;;
9815;SDS011;4947;44.526;11.360;2023-01-10T06:58:52;4.95;;;1.90;;
9815;SDS011;4947;44.526;11.360;2023-01-10T07:01:22;4.20;;;1.60;;
9815;SDS011;4947;44.526;11.360;2023-01-10T07:03:49;2.75;;;2.00;;
9815;SDS011;4947;44.526;11.360;2023-01-10T07:06:17;6.88;;;2.60;;
9815;SDS011;4947;44.526;11.360;2023-01-10T07:08:45;3.53;;;2.05;;
9815;SDS011;4947;44.526;11.360;2023-01-10T07:11:13;6.57;;;1.98;;
9815;SDS011;4947;44.526;11.360;2023-01-10T07:13:42;1.65;;;1.55;;
9815;SDS011;4947;44.526;11.360;2023-01-10T07:16:10;4.82;;;2.03;;
9815;SDS011;4947;44.526;11.360;2023-01-10T07:18:41;2.93;;;1.90;;
9815;SDS011;4947;44.526;11.360;2023-01-10T07:21:09;3.85;;;1.63;;
9815;SDS011;4947;44.526;11.360;2023-01-10T07:23:37;2.33;;;1.60;;
9815;SDS011;4947;44.526;11.360;2023-01-10T07:26:06;3.17;;;1.63;;
9815;SDS011;4947;44.526;11.360;2023-01-10T07:28:35;3.88;;;1.80;;
9815;SDS011;4947;44.526;11.360;2023-01-10T07:31:04;2.37;;;2.10;;
9815;SDS011;4947;44.526;11.360;2023-01-10T07:33:31;2.92;;;1.92;;
9815;SDS011;4947;44.526;11.360;2023-01-10T07:36:01;2.08;;;1.58;;
9815;SDS011;4947;44.526;11.360;2023-01-10T07:38:29;2.03;;;1.50;;
9815;SDS011;4947;44.526;11.360;2023-01-10T07:40:57;4.63;;;1.95;;
9815;SDS011;4947;44.526;11.360;2023-01-10T07:43:27;1.73;;;1.63;;
9815;SDS011;4947;44.526;11.360;2023-01-10T07:45:56;4.35;;;2.42;;
9815;SDS011;4947;44.526;11.360;2023-01-10T07:48:27;5.30;;;2.17;;
9815;SDS011;4947;44.526;11.360;2023-01-10T07:50:55;7.20;;;2.17;;
9815;SDS011;4947;44.526;11.360;2023-01-10T07:53:25;3.53;;;2.10;;
9815;SDS011;4947;44.526;11.360;2023-01-10T07:55:57;2.23;;;1.70;;
9815;SDS011;4947;44.526;11.360;2023-01-10T07:58:25;4.20;;;1.95;;
9815;SDS011;4947;44.526;11.360;2023-01-10T08:00:55;3.15;;;1.63;;
9815;SDS011;4947;44.526;11.360;2023-01-10T08:03:24;6.47;;;1.83;;
9815;SDS011;4947;44.526;11.360;2023-01-10T08:05:56;3.92;;;1.67;;
9815;SDS011;4947;44.526;11.360;2023-01-10T08:08:26;2.60;;;1.60;;
9815;SDS011;4947;44.526;11.360;2023-01-10T08:10:54;5.93;;;2.10;;
9815;SDS011;4947;44.526;11.360;2023-01-10T08:13:23;3.60;;;1.70;;
9815;SDS011;4947;44.526;11.360;2023-01-10T08:15:51;3.17;;;1.70;;
9815;SDS011;4947;44.526;11.360;2023-01-10T08:18:19;2.55;;;1.58;;
9815;SDS011;4947;44.526;11.360;2023-01-10T08:20:47;2.75;;;1.55;;
9815;SDS011;4947;44.526;11.360;2023-01-10T08:23:15;2.30;;;1.70;;
9815;SDS011;4947;44.526;11.360;2023-01-10T08:25:45;3.17;;;1.85;;
9815;SDS011;4947;44.526;11.360;2023-01-10T08:28:12;2.08;;;1.52;;
9815;SDS011;4947;44.526;11.360;2023-01-10T08:30:40;4.50;;;1.70;;
9815;SDS011;4947;44.526;11.360;2023-01-10T08:33:08;2.08;;;1.70;;
9815;SDS011;4947;44.526;11.360;2023-01-10T08:35:37;1.70;;;1.38;;
9815;SDS011;4947;44.526;11.360;2023-01-10T08:38:05;3.22;;;1.40;;
9815;SDS011;4947;44.526;11.360;2023-01-10T08:40:33;2.92;;;1.55;;
9815;SDS011;4947;44.526;11.360;2023-01-10T08:43:03;2.08;;;1.40;;
9815;SDS011;4947;44.526;11.360;2023-01-10T08:45:32;3.22;;;1.58;;
9815;SDS011;4947;44.526;11.360;2023-01-10T08:48:00;2.90;;;1.38;;
9815;SDS011;4947;44.526;11.360;2023-01-10T08:50:28;5.03;;;1.45;;
9815;SDS011;4947;44.526;11.360;2023-01-10T08:52:56;4.55;;;1.95;;
9815;SDS011;4947;44.526;11.360;2023-01-10T08:55:24;7.25;;;1.88;;
9815;SDS011;4947;44.526;11.360;2023-01-10T08:57:52;4.63;;;2.05;;
9815;SDS011;4947;44.526;11.360;2023-01-10T09:00:22;4.55;;;2.15;;
9815;SDS011;4947;44.526;11.360;2023-01-10T09:02:50;5.65;;;2.30;;
9815;SDS011;4947;44.526;11.360;2023-01-10T09:05:17;8.00;;;2.22;;
9815;SDS011;4947;44.526;11.360;2023-01-10T09:07:45;4.30;;;1.65;;
9815;SDS011;4947;44.526;11.360;2023-01-10T09:10:12;4.13;;;1.67;;
9815;SDS011;4947;44.526;11.360;2023-01-10T09:12:40;5.22;;;1.45;;
9815;SDS011;4947;44.526;11.360;2023-01-10T09:15:26;2.40;;;1.50;;
9815;SDS011;4947;44.526;11.360;2023-01-10T09:17:55;3.25;;;1.92;;
9815;SDS011;4947;44.526;11.360;2023-01-10T09:20:23;2.17;;;1.60;;
9815;SDS011;4947;44.526;11.360;2023-01-10T09:22:51;2.15;;;1.45;;
9815;SDS011;4947;44.526;11.360;2023-01-10T09:25:19;2.95;;;1.90;;
9815;SDS011;4947;44.526;11.360;2023-01-10T09:27:47;2.35;;;1.55;;
9815;SDS011;4947;44.526;11.360;2023-01-10T09:30:21;2.13;;;1.80;;
9815;SDS011;4947;44.526;11.360;2023-01-10T09:32:53;2.30;;;1.90;;
9815;SDS011;4947;44.526;11.360;2023-01-10T09:35:22;3.58;;;1.83;;
9815;SDS011;4947;44.526;11.360;2023-01-10T09:37:52;3.33;;;1.58;;
9815;SDS011;4947;44.526;11.360;2023-01-10T09:40:21;3.03;;;1.58;;
9815;SDS011;4947;44.526;11.360;2023-01-10T09:42:59;3.05;;;1.77;;
9815;SDS011;4947;44.526;11.360;2023-01-10T09:45:41;1.35;;;1.17;;
9815;SDS011;4947;44.526;11.360;2023-01-10T09:48:21;1.70;;;1.40;;
9815;SDS011;4947;44.526;11.360;2023-01-10T09:50:59;3.38;;;1.50;;
9815;SDS011;4947;44.526;11.360;2023-01-10T09:53:39;4.78;;;1.40;;
9815;SDS011;4947;44.526;11.360;2023-01-10T09:56:09;3.47;;;1.30;;
9815;SDS011;4947;44.526;11.360;2023-01-10T09:58:40;1.80;;;1.30;;
9815;SDS011;4947;44.526;11.360;2023-01-10T10:01:10;2.65;;;1.40;;
9815;SDS011;4947;44.526;11.360;2023-01-10T10:03:44;2.30;;;1.33;;
9815;SDS011;4947;44.526;11.360;2023-01-10T10:06:20;3.35;;;1.23;;
9815;SDS011;4947;44.526;11.360;2023-01-10T10:08:48;3.42;;;1.20;;
9815;SDS011;4947;44.526;11.360;2023-01-10T10:11:30;9.40;;;1.40;;
9815;SDS011;4947;44.526;11.360;2023-01-10T10:14:11;4.93;;;1.05;;
9815;SDS011;4947;44.526;11.360;2023-01-10T10:16:50;1.88;;;1.45;;
9815;SDS011;4947;44.526;11.360;2023-01-10T10:19:31;5.00;;;1.30;;
9815;SDS011;4947;44.526;11.360;2023-01-10T10:22:07;1.95;;;1.00;;
9815;SDS011;4947;44.526;11.360;2023-01-10T10:24:46;1.23;;;1.10;;
9815;SDS011;4947;44.526;11.360;2023-01-10T10:27:21;1.65;;;1.13;;
9815;SDS011;4947;44.526;11.360;2023-01-10T10:32:59;1.85;;;1.10;;
9815;SDS011;4947;44.526;11.360;2023-01-10T10:35:42;2.70;;;1.10;;
9815;SDS011;4947;44.526;11.360;2023-01-10T10:38:16;1.45;;;1.10;;
9815;SDS011;4947;44.526;11.360;2023-01-10T10:40:48;1.17;;;1.08;;
9815;SDS011;4947;44.526;11.360;2023-01-10T10:43:18;1.27;;;1.17;;
9815;SDS011;4947;44.526;11.360;2023-01-10T10:45:49;1.48;;;1.27;;
9815;SDS011;4947;44.526;11.360;2023-01-10T10:48:23;1.67;;;0.95;;
9815;SDS011;4947;44.526;11.360;2023-01-10T10:50:57;2.60;;;1.30;;
9815;SDS011;4947;44.526;11.360;2023-01-10T10:53:30;1.90;;;1.40;;
9815;SDS011;4947;44.526;11.360;2023-01-10T10:55:59;1.55;;;0.95;;
9815;SDS011;4947;44.526;11.360;2023-01-10T10:58:28;1.70;;;1.10;;
9815;SDS011;4947;44.526;11.360;2023-01-10T11:00:57;1.75;;;0.90;;
9815;SDS011;4947;44.526;11.360;2023-01-10T11:03:26;1.85;;;1.05;;
9815;SDS011;4947;44.526;11.360;2023-01-10T11:06:04;1.17;;;1.08;;
9815;SDS011;4947;44.526;11.360;2023-01-10T11:08:34;0.85;;;0.85;;
9815;SDS011;4947;44.526;11.360;2023-01-10T11:11:05;2.50;;;0.90;;
9815;SDS011;4947;44.526;11.360;2023-01-10T11:13:42;1.20;;;1.00;;
9815;SDS011;4947;44.526;11.360;2023-01-10T11:16:23;2.65;;;0.95;;
9815;SDS011;4947;44.526;11.360;2023-01-10T11:19:07;0.90;;;0.90;;
9815;SDS011;4947;44.526;11.360;2023-01-10T11:21:41;0.98;;;0.85;;
9815;SDS011;4947;44.526;11.360;2023-01-10T11:26:57;6.05;;;1.17;;
9815;SDS011;4947;44.526;11.360;2023-01-10T11:29:26;0.85;;;0.85;;
9815;SDS011;4947;44.526;11.360;2023-01-10T11:32:07;1.30;;;1.00;;
9815;SDS011;4947;44.526;11.360;2023-01-10T11:34:39;1.55;;;0.98;;
9815;SDS011;4947;44.526;11.360;2023-01-10T11:37:19;0.95;;;0.88;;
9815;SDS011;4947;44.526;11.360;2023-01-10T11:39:50;5.05;;;1.10;;
9815;SDS011;4947;44.526;11.360;2023-01-10T11:42:54;3.00;;;1.20;;
9815;SDS011;4947;44.526;11.360;2023-01-10T11:45:27;1.02;;;1.00;;
9815;SDS011;4947;44.526;11.360;2023-01-10T11:47:59;1.27;;;1.02;;
9815;SDS011;4947;44.526;11.360;2023-01-10T11:50:34;2.65;;;1.65;;
9815;SDS011;4947;44.526;11.360;2023-01-10T11:53:05;0.88;;;0.88;;
9815;SDS011;4947;44.526;11.360;2023-01-10T11:55:51;1.52;;;0.95;;
9815;SDS011;4947;44.526;11.360;2023-01-10T11:58:19;0.93;;;0.93;;
9815;SDS011;4947;44.526;11.360;2023-01-10T12:00:47;2.63;;;1.40;;
9815;SDS011;4947;44.526;11.360;2023-01-10T12:03:16;1.10;;;1.00;;
9815;SDS011;4947;44.526;11.360;2023-01-10T12:05:53;1.15;;;0.88;;
9815;SDS011;4947;44.526;11.360;2023-01-10T12:08:28;0.95;;;0.85;;
9815;SDS011;4947;44.526;11.360;2023-01-10T12:10:57;0.77;;;0.77;;
9815;SDS011;4947;44.526;11.360;2023-01-10T12:13:27;1.10;;;1.00;;
9815;SDS011;4947;44.526;11.360;2023-01-10T12:18:49;0.70;;;0.70;;
9815;SDS011;4947;44.526;11.360;2023-01-10T12:21:20;0.82;;;0.60;;
9815;SDS011;4947;44.526;11.360;2023-01-10T12:23:59;5.13;;;1.00;;
9815;SDS011;4947;44.526;11.360;2023-01-10T12:26:30;0.95;;;0.90;;
9815;SDS011;4947;44.526;11.360;2023-01-10T12:29:01;0.98;;;0.90;;
9815;SDS011;4947;44.526;11.360;2023-01-10T12:31:33;1.25;;;0.80;;
9815;SDS011;4947;44.526;11.360;2023-01-10T12:34:06;1.88;;;0.90;;
9815;SDS011;4947;44.526;11.360;2023-01-10T12:36:42;1.40;;;1.08;;
9815;SDS011;4947;44.526;11.360;2023-01-10T12:39:22;2.53;;;0.95;;
9815;SDS011;4947;44.526;11.360;2023-01-10T12:41:57;1.70;;;1.08;;
9815;SDS011;4947;44.526;11.360;2023-01-10T12:44:48;4.00;;;0.90;;
9815;SDS011;4947;44.526;11.360;2023-01-10T12:47:21;5.47;;;1.10;;
9815;SDS011;4947;44.526;11.360;2023-01-10T12:49:57;1.15;;;0.90;;
9815;SDS011;4947;44.526;11.360;2023-01-10T12:52:29;0.68;;;0.68;;
9815;SDS011;4947;44.526;11.360;2023-01-10T12:55:03;1.10;;;1.00;;
9815;SDS011;4947;44.526;11.360;2023-01-10T12:57:31;1.48;;;1.10;;
9815;SDS011;4947;44.526;11.360;2023-01-10T13:00:05;0.95;;;0.80;;
9815;SDS011;4947;44.526;11.360;2023-01-10T13:02:41;1.00;;;1.00;;
9815;SDS011;4947;44.526;11.360;2023-01-10T13:05:17;1.67;;;0.90;;
9815;SDS011;4947;44.526;11.360;2023-01-10T13:07:46;1.42;;;1.00;;
9815;SDS011;4947;44.526;11.360;2023-01-10T13:10:19;0.93;;;0.93;;
9815;SDS011;4947;44.526;11.360;2023-01-10T13:12:50;0.50;;;0.50;;
9815;SDS011;4947;44.526;11.360;2023-01-10T13:15:23;1.30;;;1.20;;
9815;SDS011;4947;44.526;11.360;2023-01-10T13:17:56;0.80;;;0.80;;
9815;SDS011;4947;44.526;11.360;2023-01-10T13:20:35;0.50;;;0.50;;
9815;SDS011;4947;44.526;11.360;2023-01-10T13:25:59;2.05;;;1.13;;
9815;SDS011;4947;44.526;11.360;2023-01-10T13:28:29;0.90;;;0.75;;
9815;SDS011;4947;44.526;11.360;2023-01-10T13:30:59;1.65;;;0.93;;
9815;SDS011;4947;44.526;11.360;2023-01-10T13:33:29;1.55;;;1.20;;
9815;SDS011;4947;44.526;11.360;2023-01-10T13:36:05;1.35;;;1.08;;
9815;SDS011;4947;44.526;11.360;2023-01-10T13:38:36;1.33;;;1.05;;
9815;SDS011;4947;44.526;11.360;2023-01-10T13:41:15;2.88;;;0.90;;
9815;SDS011;4947;44.526;11.360;2023-01-10T13:44:07;2.28;;;1.10;;
9815;SDS011;4947;44.526;11.360;2023-01-10T13:46:46;1.00;;;1.00;;
9815;SDS011;4947;44.526;11.360;2023-01-10T13:57:55;2.85;;;0.95;;
9815;SDS011;4947;44.526;11.360;2023-01-10T14:00:44;1.27;;;0.90;;
9815;SDS011;4947;44.526;11.360;2023-01-10T14:03:37;2.20;;;1.00;;
9815;SDS011;4947;44.526;11.360;2023-01-10T14:06:17;2.58;;;1.10;;
9815;SDS011;4947;44.526;11.360;2023-01-10T14:09:06;1.17;;;1.10;;
9815;SDS011;4947;44.526;11.360;2023-01-10T14:11:58;2.58;;;0.90;;
9815;SDS011;4947;44.526;11.360;2023-01-10T14:14:29;3.80;;;1.25;;
9815;SDS011;4947;44.526;11.360;2023-01-10T14:17:09;0.80;;;0.80;;
9815;SDS011;4947;44.526;11.360;2023-01-10T14:19:40;0.70;;;0.70;;
9815;SDS011;4947;44.526;11.360;2023-01-10T14:22:21;2.17;;;0.95;;
9815;SDS011;4947;44.526;11.360;2023-01-10T14:24:55;2.55;;;1.08;;
9815;SDS011;4947;44.526;11.360;2023-01-10T14:27:30;2.03;;;0.90;;
9815;SDS011;4947;44.526;11.360;2023-01-10T14:30:05;2.40;;;1.30;;
9815;SDS011;4947;44.526;11.360;2023-01-10T14:32:34;3.65;;;1.20;;
9815;SDS011;4947;44.526;11.360;2023-01-10T14:35:07;1.90;;;1.33;;
9815;SDS011;4947;44.526;11.360;2023-01-10T14:37:41;1.02;;;0.90;;
9815;SDS011;4947;44.526;11.360;2023-01-10T14:40:14;2.00;;;1.05;;
9815;SDS011;4947;44.526;11.360;2023-01-10T14:42:46;1.42;;;1.00;;
9815;SDS011;4947;44.526;11.360;2023-01-10T14:45:19;1.23;;;0.98;;
9815;SDS011;4947;44.526;11.360;2023-01-10T14:47:55;3.88;;;1.17;;
9815;SDS011;4947;44.526;11.360;2023-01-10T14:50:26;0.70;;;0.70;;
9815;SDS011;4947;44.526;11.360;2023-01-10T14:52:56;2.50;;;1.10;;
9815;SDS011;4947;44.526;11.360;2023-01-10T14:55:23;2.05;;;1.50;;
9815;SDS011;4947;44.526;11.360;2023-01-10T14:57:52;1.25;;;1.15;;
9815;SDS011;4947;44.526;11.360;2023-01-10T15:00:26;1.60;;;0.93;;
9815;SDS011;4947;44.526;11.360;2023-01-10T15:02:55;1.05;;;0.95;;
9815;SDS011;4947;44.526;11.360;2023-01-10T15:05:26;1.45;;;1.00;;
9815;SDS011;4947;44.526;11.360;2023-01-10T15:10:43;2.13;;;1.00;;
9815;SDS011;4947;44.526;11.360;2023-01-10T15:13:14;2.25;;;1.27;;
9815;SDS011;4947;44.526;11.360;2023-01-10T15:15:46;4.30;;;1.25;;
9815;SDS011;4947;44.526;11.360;2023-01-10T15:18:26;4.03;;;1.15;;
9815;SDS011;4947;44.526;11.360;2023-01-10T15:20:57;2.13;;;1.77;;
9815;SDS011;4947;44.526;11.360;2023-01-10T15:23:31;3.72;;;1.42;;
9815;SDS011;4947;44.526;11.360;2023-01-10T15:26:01;3.38;;;1.92;;
9815;SDS011;4947;44.526;11.360;2023-01-10T15:28:30;4.05;;;1.30;;
9815;SDS011;4947;44.526;11.360;2023-01-10T15:31:01;2.47;;;1.70;;
9815;SDS011;4947;44.526;11.360;2023-01-10T15:33:30;7.53;;;2.40;;
9815;SDS011;4947;44.526;11.360;2023-01-10T15:36:03;18.45;;;3.50;;
9815;SDS011;4947;44.526;11.360;2023-01-10T15:38:34;12.85;;;3.78;;
9815;SDS011;4947;44.526;11.360;2023-01-10T15:41:04;11.85;;;3.47;;
9815;SDS011;4947;44.526;11.360;2023-01-10T15:43:34;11.98;;;2.65;;
9815;SDS011;4947;44.526;11.360;2023-01-10T15:46:04;13.65;;;2.88;;
9815;SDS011;4947;44.526;11.360;2023-01-10T15:48:42;9.82;;;3.03;;
9815;SDS011;4947;44.526;11.360;2023-01-10T15:51:23;7.88;;;2.35;;
9815;SDS011;4947;44.526;11.360;2023-01-10T15:53:55;18.30;;;4.85;;
9815;SDS011;4947;44.526;11.360;2023-01-10T15:56:29;15.05;;;3.60;;